sensor_id;sensor_type;location;lat;lon;timestamp;P1;durP1;ratioP1;P2;durP2;ratioP2
72856;SDS011;62742;52.136;4.500;2022-09-09T00:00:53;10.50;;;5.55;;
72856;SDS011;62742;52.136;4.500;2022-09-09T00:03:40;10.60;;;5.13;;
72856;SDS011;62742;52.136;4.500;2022-09-09T00:06:36;12.13;;;5.73;;
72856;SDS011;62742;52.136;4.500;2022-09-09T00:09:17;14.18;;;7.13;;
72856;SDS011;62742;52.136;4.500;2022-09-09T00:11:54;10.88;;;6.28;;
72856;SDS011;62742;52.136;4.500;2022-09-09T00:17:43;11.30;;;6.18;;
72856;SDS011;62742;52.136;4.500;2022-09-09T00:23:25;13.18;;;6.72;;
72856;SDS011;62742;52.136;4.500;2022-09-09T00:31:31;15.20;;;7.95;;
72856;SDS011;62742;52.136;4.500;2022-09-09T00:33:58;12.50;;;6.88;;
72856;SDS011;62742;52.136;4.500;2022-09-09T00:36:36;14.90;;;6.90;;
72856;SDS011;62742;52.136;4.500;2022-09-09T00:39:04;16.13;;;7.72;;
72856;SDS011;62742;52.136;4.500;2022-09-09T00:41:49;12.23;;;6.45;;
72856;SDS011;62742;52.136;4.500;2022-09-09T00:44:30;14.63;;;7.45;;
72856;SDS011;62742;52.136;4.500;2022-09-09T00:47:09;15.25;;;6.82;;
72856;SDS011;62742;52.136;4.500;2022-09-09T00:50:21;14.45;;;8.48;;
72856;SDS011;62742;52.136;4.500;2022-09-09T00:56:24;13.02;;;7.57;;
72856;SDS011;62742;52.136;4.500;2022-09-09T00:59:16;16.73;;;9.00;;
72856;SDS011;62742;52.136;4.500;2022-09-09T01:01:58;14.95;;;8.40;;
72856;SDS011;62742;52.136;4.500;2022-09-09T01:04:29;13.45;;;7.32;;
72856;SDS011;62742;52.136;4.500;2022-09-09T01:07:04;14.90;;;8.93;;
72856;SDS011;62742;52.136;4.500;2022-09-09T01:09:57;17.92;;;9.05;;
72856;SDS011;62742;52.136;4.500;2022-09-09T01:12:33;15.45;;;7.20;;
72856;SDS011;62742;52.136;4.500;2022-09-09T01:15:11;20.73;;;9.57;;
72856;SDS011;62742;52.136;4.500;2022-09-09T01:26:59;17.63;;;8.63;;
72856;SDS011;62742;52.136;4.500;2022-09-09T01:29:29;16.60;;;7.93;;
72856;SDS011;62742;52.136;4.500;2022-09-09T01:31:57;15.20;;;8.18;;
72856;SDS011;62742;52.136;4.500;2022-09-09T01:34:31;14.73;;;8.82;;
72856;SDS011;62742;52.136;4.500;2022-09-09T01:39:37;13.38;;;6.70;;
72856;SDS011;62742;52.136;4.500;2022-09-09T01:42:09;14.15;;;7.70;;
72856;SDS011;62742;52.136;4.500;2022-09-09T01:44:39;13.95;;;8.10;;
72856;SDS011;62742;52.136;4.500;2022-09-09T01:47:06;19.45;;;11.25;;
72856;SDS011;62742;52.136;4.500;2022-09-09T01:49:33;20.80;;;9.60;;
72856;SDS011;62742;52.136;4.500;2022-09-09T01:52:00;17.70;;;10.00;;
72856;SDS011;62742;52.136;4.500;2022-09-09T01:54:28;17.60;;;8.30;;
72856;SDS011;62742;52.136;4.500;2022-09-09T02:08:14;16.15;;;10.80;;
72856;SDS011;62742;52.136;4.500;2022-09-09T02:10:59;16.58;;;10.32;;
72856;SDS011;62742;52.136;4.500;2022-09-09T02:13:35;13.05;;;7.68;;
72856;SDS011;62742;52.136;4.500;2022-09-09T02:16:07;15.25;;;8.73;;
72856;SDS011;62742;52.136;4.500;2022-09-09T02:18:45;12.70;;;7.97;;
72856;SDS011;62742;52.136;4.500;2022-09-09T02:21:57;13.93;;;8.02;;
72856;SDS011;62742;52.136;4.500;2022-09-09T02:24:27;18.17;;;11.23;;
72856;SDS011;62742;52.136;4.500;2022-09-09T02:27:01;14.23;;;9.30;;
72856;SDS011;62742;52.136;4.500;2022-09-09T02:29:36;15.05;;;9.88;;
72856;SDS011;62742;52.136;4.500;2022-09-09T02:32:09;18.20;;;11.13;;
72856;SDS011;62742;52.136;4.500;2022-09-09T02:34:56;14.30;;;8.35;;
72856;SDS011;62742;52.136;4.500;2022-09-09T02:37:31;16.88;;;9.05;;
72856;SDS011;62742;52.136;4.500;2022-09-09T02:40:05;11.88;;;8.68;;
72856;SDS011;62742;52.136;4.500;2022-09-09T02:42:39;16.92;;;10.70;;
72856;SDS011;62742;52.136;4.500;2022-09-09T02:45:12;16.33;;;9.05;;
72856;SDS011;62742;52.136;4.500;2022-09-09T02:47:50;15.77;;;7.93;;
72856;SDS011;62742;52.136;4.500;2022-09-09T02:50:45;13.07;;;8.82;;
72856;SDS011;62742;52.136;4.500;2022-09-09T02:53:49;15.23;;;8.02;;
72856;SDS011;62742;52.136;4.500;2022-09-09T02:56:35;15.82;;;9.27;;
72856;SDS011;62742;52.136;4.500;2022-09-09T02:59:08;14.73;;;8.63;;
72856;SDS011;62742;52.136;4.500;2022-09-09T03:01:35;22.25;;;11.02;;
72856;SDS011;62742;52.136;4.500;2022-09-09T03:04:03;13.93;;;7.22;;
72856;SDS011;62742;52.136;4.500;2022-09-09T03:06:31;14.48;;;8.52;;
72856;SDS011;62742;52.136;4.500;2022-09-09T03:08:57;15.00;;;7.88;;
72856;SDS011;62742;52.136;4.500;2022-09-09T03:11:26;12.98;;;7.15;;
72856;SDS011;62742;52.136;4.500;2022-09-09T03:13:53;14.45;;;6.82;;
72856;SDS011;62742;52.136;4.500;2022-09-09T03:16:22;14.02;;;7.32;;
72856;SDS011;62742;52.136;4.500;2022-09-09T03:18:49;10.38;;;6.10;;
72856;SDS011;62742;52.136;4.500;2022-09-09T03:21:16;12.27;;;7.20;;
72856;SDS011;62742;52.136;4.500;2022-09-09T03:23:42;13.45;;;6.90;;
72856;SDS011;62742;52.136;4.500;2022-09-09T03:26:10;10.13;;;5.70;;
72856;SDS011;62742;52.136;4.500;2022-09-09T03:28:37;12.30;;;5.80;;
72856;SDS011;62742;52.136;4.500;2022-09-09T03:31:04;14.25;;;5.85;;
72856;SDS011;62742;52.136;4.500;2022-09-09T03:33:31;12.35;;;6.90;;
72856;SDS011;62742;52.136;4.500;2022-09-09T03:35:58;8.77;;;4.93;;
72856;SDS011;62742;52.136;4.500;2022-09-09T03:38:25;10.43;;;5.60;;
72856;SDS011;62742;52.136;4.500;2022-09-09T03:40:52;8.45;;;4.88;;
72856;SDS011;62742;52.136;4.500;2022-09-09T03:43:21;11.45;;;6.43;;
72856;SDS011;62742;52.136;4.500;2022-09-09T03:45:52;10.82;;;5.40;;
72856;SDS011;62742;52.136;4.500;2022-09-09T03:48:22;14.48;;;5.85;;
72856;SDS011;62742;52.136;4.500;2022-09-09T03:50:51;9.25;;;4.88;;
72856;SDS011;62742;52.136;4.500;2022-09-09T03:53:20;9.77;;;5.25;;
72856;SDS011;62742;52.136;4.500;2022-09-09T03:55:50;10.02;;;4.82;;
72856;SDS011;62742;52.136;4.500;2022-09-09T03:58:22;8.50;;;3.88;;
72856;SDS011;62742;52.136;4.500;2022-09-09T04:00:59;8.68;;;5.25;;
72856;SDS011;62742;52.136;4.500;2022-09-09T04:03:40;9.60;;;5.13;;
72856;SDS011;62742;52.136;4.500;2022-09-09T04:06:07;11.70;;;5.82;;
72856;SDS011;62742;52.136;4.500;2022-09-09T04:08:37;13.63;;;5.45;;
72856;SDS011;62742;52.136;4.500;2022-09-09T04:11:04;10.80;;;5.43;;
72856;SDS011;62742;52.136;4.500;2022-09-09T04:13:32;12.50;;;5.97;;
72856;SDS011;62742;52.136;4.500;2022-09-09T04:16:01;10.25;;;4.72;;
72856;SDS011;62742;52.136;4.500;2022-09-09T04:18:29;10.38;;;5.75;;
72856;SDS011;62742;52.136;4.500;2022-09-09T04:20:56;13.90;;;6.90;;
72856;SDS011;62742;52.136;4.500;2022-09-09T04:23:24;10.98;;;5.50;;
72856;SDS011;62742;52.136;4.500;2022-09-09T04:25:55;12.65;;;6.55;;
72856;SDS011;62742;52.136;4.500;2022-09-09T04:28:24;13.40;;;5.85;;
72856;SDS011;62742;52.136;4.500;2022-09-09T04:30:54;10.88;;;4.95;;
72856;SDS011;62742;52.136;4.500;2022-09-09T04:33:23;11.40;;;5.13;;
72856;SDS011;62742;52.136;4.500;2022-09-09T04:35:53;13.07;;;6.10;;
72856;SDS011;62742;52.136;4.500;2022-09-09T04:38:19;13.50;;;6.38;;
72856;SDS011;62742;52.136;4.500;2022-09-09T04:40:49;12.27;;;5.60;;
72856;SDS011;62742;52.136;4.500;2022-09-09T04:43:17;14.65;;;6.78;;
72856;SDS011;62742;52.136;4.500;2022-09-09T04:45:48;11.65;;;5.85;;
72856;SDS011;62742;52.136;4.500;2022-09-09T04:48:19;9.50;;;4.43;;
72856;SDS011;62742;52.136;4.500;2022-09-09T04:50:53;10.68;;;5.38;;
72856;SDS011;62742;52.136;4.500;2022-09-09T04:53:25;9.85;;;5.07;;
72856;SDS011;62742;52.136;4.500;2022-09-09T04:56:05;11.45;;;5.43;;
72856;SDS011;62742;52.136;4.500;2022-09-09T04:58:40;11.27;;;4.75;;
72856;SDS011;62742;52.136;4.500;2022-09-09T05:01:15;14.10;;;6.28;;
72856;SDS011;62742;52.136;4.500;2022-09-09T05:03:45;9.45;;;4.32;;
72856;SDS011;62742;52.136;4.500;2022-09-09T05:06:13;12.38;;;5.57;;
72856;SDS011;62742;52.136;4.500;2022-09-09T05:08:45;11.02;;;5.68;;
72856;SDS011;62742;52.136;4.500;2022-09-09T05:13:48;7.95;;;3.47;;
72856;SDS011;62742;52.136;4.500;2022-09-09T05:16:16;9.15;;;4.10;;
72856;SDS011;62742;52.136;4.500;2022-09-09T05:18:43;11.05;;;4.43;;
72856;SDS011;62742;52.136;4.500;2022-09-09T05:21:12;12.15;;;4.60;;
72856;SDS011;62742;52.136;4.500;2022-09-09T05:23:41;9.25;;;4.10;;
72856;SDS011;62742;52.136;4.500;2022-09-09T05:26:09;12.23;;;3.90;;
72856;SDS011;62742;52.136;4.500;2022-09-09T05:28:40;12.20;;;4.65;;
72856;SDS011;62742;52.136;4.500;2022-09-09T05:31:08;8.20;;;3.78;;
72856;SDS011;62742;52.136;4.500;2022-09-09T05:33:42;10.43;;;4.30;;
72856;SDS011;62742;52.136;4.500;2022-09-09T05:36:12;7.93;;;3.75;;
72856;SDS011;62742;52.136;4.500;2022-09-09T05:38:40;8.65;;;4.18;;
72856;SDS011;62742;52.136;4.500;2022-09-09T05:41:07;10.90;;;4.53;;
72856;SDS011;62742;52.136;4.500;2022-09-09T05:43:37;7.75;;;3.40;;
72856;SDS011;62742;52.136;4.500;2022-09-09T05:46:08;14.52;;;5.38;;
72856;SDS011;62742;52.136;4.500;2022-09-09T05:48:41;10.60;;;4.10;;
72856;SDS011;62742;52.136;4.500;2022-09-09T05:51:15;11.65;;;4.47;;
72856;SDS011;62742;52.136;4.500;2022-09-09T05:53:46;10.55;;;3.97;;
72856;SDS011;62742;52.136;4.500;2022-09-09T05:56:14;13.15;;;5.07;;
72856;SDS011;62742;52.136;4.500;2022-09-09T05:58:44;12.93;;;5.90;;
72856;SDS011;62742;52.136;4.500;2022-09-09T06:01:16;15.02;;;5.78;;
72856;SDS011;62742;52.136;4.500;2022-09-09T06:03:46;14.95;;;6.40;;
72856;SDS011;62742;52.136;4.500;2022-09-09T06:06:18;18.05;;;5.75;;
72856;SDS011;62742;52.136;4.500;2022-09-09T06:08:49;14.73;;;5.68;;
72856;SDS011;62742;52.136;4.500;2022-09-09T06:11:20;15.50;;;5.68;;
72856;SDS011;62742;52.136;4.500;2022-09-09T06:13:49;14.55;;;5.57;;
72856;SDS011;62742;52.136;4.500;2022-09-09T06:16:20;12.98;;;4.45;;
72856;SDS011;62742;52.136;4.500;2022-09-09T06:18:50;10.80;;;4.47;;
72856;SDS011;62742;52.136;4.500;2022-09-09T06:21:23;13.88;;;5.20;;
72856;SDS011;62742;52.136;4.500;2022-09-09T06:23:52;17.60;;;5.10;;
72856;SDS011;62742;52.136;4.500;2022-09-09T06:26:28;14.73;;;4.88;;
72856;SDS011;62742;52.136;4.500;2022-09-09T06:28:58;13.38;;;4.30;;
72856;SDS011;62742;52.136;4.500;2022-09-09T06:31:28;15.23;;;4.75;;
72856;SDS011;62742;52.136;4.500;2022-09-09T06:33:57;15.88;;;4.70;;
72856;SDS011;62742;52.136;4.500;2022-09-09T06:36:25;17.75;;;4.57;;
72856;SDS011;62742;52.136;4.500;2022-09-09T06:38:56;10.82;;;4.60;;
72856;SDS011;62742;52.136;4.500;2022-09-09T06:41:24;15.02;;;4.97;;
72856;SDS011;62742;52.136;4.500;2022-09-09T06:43:53;13.98;;;5.65;;
72856;SDS011;62742;52.136;4.500;2022-09-09T06:46:22;15.00;;;5.28;;
72856;SDS011;62742;52.136;4.500;2022-09-09T06:48:55;17.13;;;6.00;;
72856;SDS011;62742;52.136;4.500;2022-09-09T06:51:28;14.63;;;5.38;;
72856;SDS011;62742;52.136;4.500;2022-09-09T06:54:01;18.17;;;5.13;;
72856;SDS011;62742;52.136;4.500;2022-09-09T06:56:31;14.93;;;6.30;;
72856;SDS011;62742;52.136;4.500;2022-09-09T06:59:01;16.45;;;5.55;;
72856;SDS011;62742;52.136;4.500;2022-09-09T07:01:31;16.30;;;6.43;;
72856;SDS011;62742;52.136;4.500;2022-09-09T07:04:02;13.68;;;5.85;;
72856;SDS011;62742;52.136;4.500;2022-09-09T07:06:34;14.32;;;6.15;;
72856;SDS011;62742;52.136;4.500;2022-09-09T07:09:04;19.17;;;6.32;;
72856;SDS011;62742;52.136;4.500;2022-09-09T07:11:43;11.95;;;6.07;;
72856;SDS011;62742;52.136;4.500;2022-09-09T07:14:12;15.85;;;6.97;;
72856;SDS011;62742;52.136;4.500;2022-09-09T07:16:41;20.20;;;6.68;;
72856;SDS011;62742;52.136;4.500;2022-09-09T07:19:10;16.95;;;6.47;;
72856;SDS011;62742;52.136;4.500;2022-09-09T07:21:38;13.30;;;6.82;;
72856;SDS011;62742;52.136;4.500;2022-09-09T07:24:06;14.18;;;6.53;;
72856;SDS011;62742;52.136;4.500;2022-09-09T07:26:37;14.30;;;7.38;;
72856;SDS011;62742;52.136;4.500;2022-09-09T07:29:05;13.15;;;6.30;;
72856;SDS011;62742;52.136;4.500;2022-09-09T07:31:33;15.65;;;6.28;;
72856;SDS011;62742;52.136;4.500;2022-09-09T07:34:03;12.60;;;5.40;;
72856;SDS011;62742;52.136;4.500;2022-09-09T07:36:32;17.73;;;6.40;;
72856;SDS011;62742;52.136;4.500;2022-09-09T07:39:03;18.70;;;7.03;;
72856;SDS011;62742;52.136;4.500;2022-09-09T07:41:35;16.40;;;6.05;;
72856;SDS011;62742;52.136;4.500;2022-09-09T07:44:16;14.18;;;5.43;;
72856;SDS011;62742;52.136;4.500;2022-09-09T07:46:51;13.85;;;6.22;;
72856;SDS011;62742;52.136;4.500;2022-09-09T07:49:17;14.77;;;6.32;;
72856;SDS011;62742;52.136;4.500;2022-09-09T07:51:45;18.73;;;6.97;;
72856;SDS011;62742;52.136;4.500;2022-09-09T07:54:16;18.92;;;6.78;;
72856;SDS011;62742;52.136;4.500;2022-09-09T07:56:49;14.43;;;7.00;;
72856;SDS011;62742;52.136;4.500;2022-09-09T07:59:17;14.48;;;6.32;;
72856;SDS011;62742;52.136;4.500;2022-09-09T08:01:46;12.63;;;6.28;;
72856;SDS011;62742;52.136;4.500;2022-09-09T08:04:20;14.55;;;6.45;;
72856;SDS011;62742;52.136;4.500;2022-09-09T08:06:53;13.77;;;6.30;;
72856;SDS011;62742;52.136;4.500;2022-09-09T08:09:27;20.48;;;7.55;;
72856;SDS011;62742;52.136;4.500;2022-09-09T08:11:55;18.27;;;7.10;;
72856;SDS011;62742;52.136;4.500;2022-09-09T08:14:24;15.02;;;7.50;;
72856;SDS011;62742;52.136;4.500;2022-09-09T08:16:50;13.88;;;7.07;;
72856;SDS011;62742;52.136;4.500;2022-09-09T08:19:19;11.45;;;5.43;;
72856;SDS011;62742;52.136;4.500;2022-09-09T08:21:45;15.77;;;6.07;;
72856;SDS011;62742;52.136;4.500;2022-09-09T08:24:12;13.23;;;5.85;;
72856;SDS011;62742;52.136;4.500;2022-09-09T08:26:43;15.45;;;6.50;;
72856;SDS011;62742;52.136;4.500;2022-09-09T08:29:14;11.73;;;6.38;;
72856;SDS011;62742;52.136;4.500;2022-09-09T08:34:20;16.85;;;5.70;;
72856;SDS011;62742;52.136;4.500;2022-09-09T08:36:48;13.80;;;6.00;;
72856;SDS011;62742;52.136;4.500;2022-09-09T08:39:17;14.00;;;5.80;;
72856;SDS011;62742;52.136;4.500;2022-09-09T08:53:00;12.75;;;5.07;;
72856;SDS011;62742;52.136;4.500;2022-09-09T08:55:54;11.80;;;5.05;;
72856;SDS011;62742;52.136;4.500;2022-09-09T08:58:29;11.40;;;5.38;;
72856;SDS011;62742;52.136;4.500;2022-09-09T09:09:36;17.30;;;5.38;;
72856;SDS011;62742;52.136;4.500;2022-09-09T09:12:35;14.23;;;5.70;;
72856;SDS011;62742;52.136;4.500;2022-09-09T09:15:19;14.80;;;6.00;;
72856;SDS011;62742;52.136;4.500;2022-09-09T09:17:52;16.55;;;6.28;;
72856;SDS011;62742;52.136;4.500;2022-09-09T09:20:32;13.25;;;6.55;;
72856;SDS011;62742;52.136;4.500;2022-09-09T09:23:49;17.35;;;7.07;;
72856;SDS011;62742;52.136;4.500;2022-09-09T09:26:23;15.20;;;6.90;;
72856;SDS011;62742;52.136;4.500;2022-09-09T09:28:58;15.13;;;8.57;;
72856;SDS011;62742;52.136;4.500;2022-09-09T09:31:34;14.90;;;8.18;;
72856;SDS011;62742;52.136;4.500;2022-09-09T09:34:00;19.02;;;8.05;;
72856;SDS011;62742;52.136;4.500;2022-09-09T09:37:15;18.95;;;7.53;;
72856;SDS011;62742;52.136;4.500;2022-09-09T09:39:24;16.98;;;8.85;;
72856;SDS011;62742;52.136;4.500;2022-09-09T09:41:56;16.50;;;8.00;;
72856;SDS011;62742;52.136;4.500;2022-09-09T09:44:28;16.30;;;9.50;;
72856;SDS011;62742;52.136;4.500;2022-09-09T09:47:16;20.08;;;9.77;;
72856;SDS011;62742;52.136;4.500;2022-09-09T09:49:53;17.70;;;9.88;;
72856;SDS011;62742;52.136;4.500;2022-09-09T09:52:26;13.95;;;8.40;;
72856;SDS011;62742;52.136;4.500;2022-09-09T09:55:02;18.95;;;8.38;;
72856;SDS011;62742;52.136;4.500;2022-09-09T09:57:38;14.25;;;8.15;;
72856;SDS011;62742;52.136;4.500;2022-09-09T10:00:12;17.58;;;7.60;;
72856;SDS011;62742;52.136;4.500;2022-09-09T10:02:49;15.75;;;8.48;;
72856;SDS011;62742;52.136;4.500;2022-09-09T10:05:20;14.18;;;7.45;;
72856;SDS011;62742;52.136;4.500;2022-09-09T10:08:04;14.45;;;8.23;;
72856;SDS011;62742;52.136;4.500;2022-09-09T10:19:35;12.77;;;6.95;;
72856;SDS011;62742;52.136;4.500;2022-09-09T10:24:39;17.13;;;8.40;;
72856;SDS011;62742;52.136;4.500;2022-09-09T10:30:39;17.42;;;7.65;;
72856;SDS011;62742;52.136;4.500;2022-09-09T10:33:27;15.27;;;6.88;;
72856;SDS011;62742;52.136;4.500;2022-09-09T10:36:25;11.23;;;6.63;;
72856;SDS011;62742;52.136;4.500;2022-09-09T10:38:53;15.95;;;7.38;;
72856;SDS011;62742;52.136;4.500;2022-09-09T10:49:58;14.32;;;7.05;;
72856;SDS011;62742;52.136;4.500;2022-09-09T10:53:12;15.02;;;7.13;;
72856;SDS011;62742;52.136;4.500;2022-09-09T10:56:09;14.15;;;6.47;;
72856;SDS011;62742;52.136;4.500;2022-09-09T10:58:43;15.80;;;6.32;;
72856;SDS011;62742;52.136;4.500;2022-09-09T11:08:11;16.52;;;6.72;;
72856;SDS011;62742;52.136;4.500;2022-09-09T11:13:17;11.13;;;5.60;;
72856;SDS011;62742;52.136;4.500;2022-09-09T11:15:54;14.63;;;5.93;;
72856;SDS011;62742;52.136;4.500;2022-09-09T11:18:31;11.52;;;4.68;;
72856;SDS011;62742;52.136;4.500;2022-09-09T11:21:06;6.20;;;3.53;;
72856;SDS011;62742;52.136;4.500;2022-09-09T11:23:49;8.93;;;3.75;;
72856;SDS011;62742;52.136;4.500;2022-09-09T11:26:28;6.60;;;2.80;;
72856;SDS011;62742;52.136;4.500;2022-09-09T11:32:07;9.02;;;4.32;;
72856;SDS011;62742;52.136;4.500;2022-09-09T11:40:17;8.82;;;4.28;;
72856;SDS011;62742;52.136;4.500;2022-09-09T11:43:04;9.88;;;4.30;;
72856;SDS011;62742;52.136;4.500;2022-09-09T11:45:39;12.15;;;4.85;;
72856;SDS011;62742;52.136;4.500;2022-09-09T11:51:06;14.10;;;5.63;;
72856;SDS011;62742;52.136;4.500;2022-09-09T11:56:28;16.33;;;6.82;;
72856;SDS011;62742;52.136;4.500;2022-09-09T11:59:17;15.35;;;6.78;;
72856;SDS011;62742;52.136;4.500;2022-09-09T12:04:39;12.98;;;6.47;;
72856;SDS011;62742;52.136;4.500;2022-09-09T12:07:30;14.75;;;7.13;;
72856;SDS011;62742;52.136;4.500;2022-09-09T12:15:35;12.80;;;6.28;;
72856;SDS011;62742;52.136;4.500;2022-09-09T12:18:21;10.07;;;4.57;;
72856;SDS011;62742;52.136;4.500;2022-09-09T12:21:07;8.50;;;4.43;;
72856;SDS011;62742;52.136;4.500;2022-09-09T12:23:55;11.70;;;5.78;;
72856;SDS011;62742;52.136;4.500;2022-09-09T12:26:40;8.65;;;5.30;;
72856;SDS011;62742;52.136;4.500;2022-09-09T12:29:43;11.80;;;5.03;;
72856;SDS011;62742;52.136;4.500;2022-09-09T12:32:28;13.98;;;6.00;;
72856;SDS011;62742;52.136;4.500;2022-09-09T12:34:58;11.45;;;4.88;;
72856;SDS011;62742;52.136;4.500;2022-09-09T12:37:42;12.05;;;6.53;;
72856;SDS011;62742;52.136;4.500;2022-09-09T12:40:22;14.32;;;6.18;;
72856;SDS011;62742;52.136;4.500;2022-09-09T12:42:54;10.52;;;6.00;;
72856;SDS011;62742;52.136;4.500;2022-09-09T12:45:23;10.25;;;5.72;;
72856;SDS011;62742;52.136;4.500;2022-09-09T12:47:59;10.85;;;6.50;;
72856;SDS011;62742;52.136;4.500;2022-09-09T12:50:36;10.65;;;6.38;;
72856;SDS011;62742;52.136;4.500;2022-09-09T12:53:12;10.20;;;6.00;;
72856;SDS011;62742;52.136;4.500;2022-09-09T12:55:51;11.30;;;5.43;;
72856;SDS011;62742;52.136;4.500;2022-09-09T12:58:50;9.13;;;5.32;;
72856;SDS011;62742;52.136;4.500;2022-09-09T13:01:22;8.75;;;5.18;;
72856;SDS011;62742;52.136;4.500;2022-09-09T13:03:55;10.98;;;6.00;;
72856;SDS011;62742;52.136;4.500;2022-09-09T13:06:24;8.00;;;4.55;;
72856;SDS011;62742;52.136;4.500;2022-09-09T13:08:59;8.27;;;4.28;;
72856;SDS011;62742;52.136;4.500;2022-09-09T13:11:33;7.50;;;4.28;;
72856;SDS011;62742;52.136;4.500;2022-09-09T13:14:24;11.48;;;4.88;;
72856;SDS011;62742;52.136;4.500;2022-09-09T13:17:01;10.95;;;4.82;;
72856;SDS011;62742;52.136;4.500;2022-09-09T13:19:32;10.93;;;4.90;;
72856;SDS011;62742;52.136;4.500;2022-09-09T13:22:20;7.75;;;4.20;;
72856;SDS011;62742;52.136;4.500;2022-09-09T13:25:01;9.57;;;4.72;;
72856;SDS011;62742;52.136;4.500;2022-09-09T13:27:38;7.13;;;3.70;;
72856;SDS011;62742;52.136;4.500;2022-09-09T13:35:54;10.43;;;4.78;;
72856;SDS011;62742;52.136;4.500;2022-09-09T13:38:24;11.57;;;4.60;;
72856;SDS011;62742;52.136;4.500;2022-09-09T13:40:54;9.30;;;4.50;;
72856;SDS011;62742;52.136;4.500;2022-09-09T13:43:25;10.30;;;4.32;;
72856;SDS011;62742;52.136;4.500;2022-09-09T13:45:58;7.43;;;4.50;;
72856;SDS011;62742;52.136;4.500;2022-09-09T13:48:27;7.22;;;4.32;;
72856;SDS011;62742;52.136;4.500;2022-09-09T13:50:56;8.32;;;3.70;;
72856;SDS011;62742;52.136;4.500;2022-09-09T13:53:26;10.23;;;5.63;;
72856;SDS011;62742;52.136;4.500;2022-09-09T13:55:54;8.35;;;3.70;;
72856;SDS011;62742;52.136;4.500;2022-09-09T13:58:22;7.78;;;3.38;;
72856;SDS011;62742;52.136;4.500;2022-09-09T14:00:52;9.95;;;3.00;;
72856;SDS011;62742;52.136;4.500;2022-09-09T14:03:19;4.05;;;1.50;;
72856;SDS011;62742;52.136;4.500;2022-09-09T14:05:47;2.88;;;1.20;;
72856;SDS011;62742;52.136;4.500;2022-09-09T14:08:23;2.58;;;1.13;;
72856;SDS011;62742;52.136;4.500;2022-09-09T14:10:52;2.47;;;1.05;;
72856;SDS011;62742;52.136;4.500;2022-09-09T14:13:21;2.30;;;1.02;;
72856;SDS011;62742;52.136;4.500;2022-09-09T14:15:48;2.42;;;1.08;;
72856;SDS011;62742;52.136;4.500;2022-09-09T14:18:15;5.63;;;1.13;;
72856;SDS011;62742;52.136;4.500;2022-09-09T14:20:42;4.28;;;0.90;;
72856;SDS011;62742;52.136;4.500;2022-09-09T14:23:10;3.50;;;1.20;;
72856;SDS011;62742;52.136;4.500;2022-09-09T14:25:41;3.38;;;1.30;;
72856;SDS011;62742;52.136;4.500;2022-09-09T14:28:12;7.10;;;1.70;;
72856;SDS011;62742;52.136;4.500;2022-09-09T14:30:40;5.72;;;1.33;;
72856;SDS011;62742;52.136;4.500;2022-09-09T14:33:13;7.32;;;2.00;;
72856;SDS011;62742;52.136;4.500;2022-09-09T14:35:42;8.07;;;1.75;;
72856;SDS011;62742;52.136;4.500;2022-09-09T14:38:09;5.20;;;1.63;;
72856;SDS011;62742;52.136;4.500;2022-09-09T14:40:36;6.30;;;1.83;;
72856;SDS011;62742;52.136;4.500;2022-09-09T14:43:04;9.10;;;2.00;;
72856;SDS011;62742;52.136;4.500;2022-09-09T14:45:31;6.63;;;2.15;;
72856;SDS011;62742;52.136;4.500;2022-09-09T14:47:58;7.95;;;2.33;;
72856;SDS011;62742;52.136;4.500;2022-09-09T14:50:25;5.30;;;2.10;;
72856;SDS011;62742;52.136;4.500;2022-09-09T14:52:52;9.50;;;2.45;;
72856;SDS011;62742;52.136;4.500;2022-09-09T14:55:18;10.23;;;2.10;;
72856;SDS011;62742;52.136;4.500;2022-09-09T14:57:45;5.95;;;1.90;;
72856;SDS011;62742;52.136;4.500;2022-09-09T15:00:12;7.22;;;1.92;;
72856;SDS011;62742;52.136;4.500;2022-09-09T15:02:39;9.05;;;3.30;;
72856;SDS011;62742;52.136;4.500;2022-09-09T15:05:06;14.68;;;3.10;;
72856;SDS011;62742;52.136;4.500;2022-09-09T15:07:33;7.95;;;2.33;;
72856;SDS011;62742;52.136;4.500;2022-09-09T15:09:59;13.13;;;5.30;;
72856;SDS011;62742;52.136;4.500;2022-09-09T15:12:26;12.23;;;3.90;;
72856;SDS011;62742;52.136;4.500;2022-09-09T15:14:54;9.60;;;3.40;;
72856;SDS011;62742;52.136;4.500;2022-09-09T15:17:20;12.20;;;2.92;;
72856;SDS011;62742;52.136;4.500;2022-09-09T15:19:47;8.25;;;2.80;;
72856;SDS011;62742;52.136;4.500;2022-09-09T15:22:15;9.48;;;2.45;;
72856;SDS011;62742;52.136;4.500;2022-09-09T15:24:42;8.43;;;2.45;;
72856;SDS011;62742;52.136;4.500;2022-09-09T15:27:08;9.52;;;3.03;;
72856;SDS011;62742;52.136;4.500;2022-09-09T15:29:35;8.93;;;2.63;;
72856;SDS011;62742;52.136;4.500;2022-09-09T15:32:01;8.02;;;1.98;;
72856;SDS011;62742;52.136;4.500;2022-09-09T15:34:28;5.40;;;2.05;;
72856;SDS011;62742;52.136;4.500;2022-09-09T15:36:54;7.57;;;2.00;;
72856;SDS011;62742;52.136;4.500;2022-09-09T15:39:21;6.43;;;1.98;;
72856;SDS011;62742;52.136;4.500;2022-09-09T15:41:48;7.30;;;1.65;;
72856;SDS011;62742;52.136;4.500;2022-09-09T15:44:15;7.22;;;2.17;;
72856;SDS011;62742;52.136;4.500;2022-09-09T15:46:43;6.43;;;1.73;;
72856;SDS011;62742;52.136;4.500;2022-09-09T15:49:15;7.05;;;1.90;;
72856;SDS011;62742;52.136;4.500;2022-09-09T15:54:32;5.22;;;1.80;;
72856;SDS011;62742;52.136;4.500;2022-09-09T15:57:05;5.75;;;2.20;;
72856;SDS011;62742;52.136;4.500;2022-09-09T15:59:37;7.22;;;2.33;;
72856;SDS011;62742;52.136;4.500;2022-09-09T16:02:03;10.13;;;3.40;;
72856;SDS011;62742;52.136;4.500;2022-09-09T16:04:30;7.25;;;2.35;;
72856;SDS011;62742;52.136;4.500;2022-09-09T16:06:58;6.93;;;2.10;;
72856;SDS011;62742;52.136;4.500;2022-09-09T16:09:30;6.20;;;2.00;;
72856;SDS011;62742;52.136;4.500;2022-09-09T16:11:58;7.65;;;2.05;;
72856;SDS011;62742;52.136;4.500;2022-09-09T16:14:27;6.05;;;2.50;;
72856;SDS011;62742;52.136;4.500;2022-09-09T16:16:54;9.95;;;2.22;;
72856;SDS011;62742;52.136;4.500;2022-09-09T16:19:20;6.13;;;2.53;;
72856;SDS011;62742;52.136;4.500;2022-09-09T16:21:48;6.28;;;2.53;;
72856;SDS011;62742;52.136;4.500;2022-09-09T16:24:17;5.75;;;2.50;;
72856;SDS011;62742;52.136;4.500;2022-09-09T16:26:46;7.70;;;2.55;;
72856;SDS011;62742;52.136;4.500;2022-09-09T16:29:16;9.95;;;2.55;;
72856;SDS011;62742;52.136;4.500;2022-09-09T16:31:45;7.07;;;2.80;;
72856;SDS011;62742;52.136;4.500;2022-09-09T16:34:13;13.73;;;3.60;;
72856;SDS011;62742;52.136;4.500;2022-09-09T16:36:43;10.15;;;3.50;;
72856;SDS011;62742;52.136;4.500;2022-09-09T16:39:11;10.63;;;3.42;;
72856;SDS011;62742;52.136;4.500;2022-09-09T16:41:42;9.38;;;4.22;;
72856;SDS011;62742;52.136;4.500;2022-09-09T16:44:11;9.82;;;3.97;;
72856;SDS011;62742;52.136;4.500;2022-09-09T16:46:40;12.13;;;4.40;;
72856;SDS011;62742;52.136;4.500;2022-09-09T16:49:09;9.27;;;4.93;;
72856;SDS011;62742;52.136;4.500;2022-09-09T16:51:40;11.48;;;5.13;;
72856;SDS011;62742;52.136;4.500;2022-09-09T16:54:13;12.07;;;5.00;;
72856;SDS011;62742;52.136;4.500;2022-09-09T16:56:43;11.60;;;5.68;;
72856;SDS011;62742;52.136;4.500;2022-09-09T16:59:19;12.75;;;6.72;;
72856;SDS011;62742;52.136;4.500;2022-09-09T17:01:48;11.98;;;5.82;;
72856;SDS011;62742;52.136;4.500;2022-09-09T17:04:18;13.70;;;6.28;;
72856;SDS011;62742;52.136;4.500;2022-09-09T17:06:52;15.48;;;7.35;;
72856;SDS011;62742;52.136;4.500;2022-09-09T17:09:21;17.55;;;8.23;;
72856;SDS011;62742;52.136;4.500;2022-09-09T17:11:49;14.23;;;7.88;;
72856;SDS011;62742;52.136;4.500;2022-09-09T17:14:18;17.45;;;7.30;;
72856;SDS011;62742;52.136;4.500;2022-09-09T17:16:46;18.23;;;7.47;;
72856;SDS011;62742;52.136;4.500;2022-09-09T17:19:13;17.50;;;8.48;;